Time;durP1;ratioP1;P1;durP2;ratioP2;P2;SDS_P1;SDS_P2;PMS_P1;PMS_P2;Temp;Humidity;BMP_temperature;BMP_pressure;BME280_temperature;BME280_humidity;BME280_pressure;Samples;Min_cycle;Max_cycle;Signal;HPM_P1;HPM_P2
2021/12/16 00:02:14;;;;;;;17.52;7.65;;;2.00;99.90;;;;;;5035286;28;20045;-60
2021/12/16 00:07:33;;;;;;;16.73;7.95;;;2.10;99.90;;;;;;5034911;28;20053;-61
2021/12/16 00:31:54;;;;;;;;;;;2.20;99.90;;;;;;5035187;28;20099;-59
2021/12/16 00:34:25;;;;;;;16.52;7.50;;;2.10;99.90;;;;;;5016637;28;19968;-62
2021/12/16 00:36:53;;;;;;;16.55;8.00;;;2.10;99.90;;;;;;5033938;28;20037;-62
2021/12/16 00:39:25;;;;;;;16.50;7.65;;;2.10;99.90;;;;;;5033968;28;20072;-61
2021/12/16 00:41:58;;;;;;;19.40;7.70;;;2.10;99.90;;;;;;5016565;28;20457;-62
2021/12/16 00:49:44;;;;;;;14.80;7.15;;;2.00;99.90;;;;;;5034078;28;20383;-61
2021/12/16 00:55:27;;;;;;;18.77;7.90;;;2.00;99.90;;;;;;5016357;28;20042;-61
2021/12/16 00:57:55;;;;;;;15.20;8.05;;;2.00;99.90;;;;;;5016416;28;20478;-61
2021/12/16 01:00:26;;;;;;;17.45;7.70;;;2.10;99.90;;;;;;5016461;28;20520;-61
2021/12/16 01:33:55;;;;;;;16.55;6.78;;;2.00;99.90;;;;;;5007953;28;20048;-62
2021/12/16 01:55:03;;;;;;;15.40;7.85;;;2.10;99.90;;;;;;5015296;28;20073;-61
2021/12/16 01:57:42;;;;;;;15.48;8.10;;;2.00;99.90;;;;;;5014813;28;20069;-61
2021/12/16 02:00:24;;;;;;;19.65;8.82;;;2.00;99.90;;;;;;5031726;28;20041;-61
2021/12/16 02:02:58;;;;;;;16.63;8.48;;;2.00;99.90;;;;;;5014837;28;20053;-62
2021/12/16 02:08:37;;;;;;;15.57;7.65;;;2.00;99.90;;;;;;5003687;28;20045;-61
2021/12/16 02:27:44;;;;;;;20.88;9.30;;;1.90;99.90;;;;;;5031835;28;20095;-61
2021/12/16 02:31:10;;;;;;;16.63;8.15;;;2.00;99.90;;;;;;5032581;28;20045;-61
2021/12/16 02:35:58;;;;;;;16.20;8.82;;;2.00;99.90;;;;;;5014013;28;20080;-61
2021/12/16 02:38:29;;;;;;;18.65;9.18;;;2.00;99.90;;;;;;5030921;28;20132;-61
2021/12/16 02:40:57;;;;;;;17.48;8.63;;;2.00;99.90;;;;;;5014606;28;20457;-61
2021/12/16 02:43:54;;;;;;;18.63;10.05;;;2.00;99.90;;;;;;5014376;28;20041;-61
2021/12/16 02:48:57;;;;;;;17.85;9.23;;;1.90;99.90;;;;;;5014017;28;20140;-62
2021/12/16 02:51:27;;;;;;;19.88;9.90;;;1.90;99.90;;;;;;5032308;28;20053;-61
2021/12/16 02:53:58;;;;;;;18.70;9.57;;;1.90;99.90;;;;;;5013934;28;20051;-61
2021/12/16 02:56:28;;;;;;;20.02;9.75;;;1.90;99.90;;;;;;5013831;28;20690;-62
2021/12/16 02:58:56;;;;;;;18.55;8.68;;;1.90;99.90;;;;;;5031577;28;20401;-61
2021/12/16 03:01:33;;;;;;;18.30;8.95;;;1.90;99.90;;;;;;5014324;28;20382;-61
2021/12/16 03:04:03;;;;;;;19.85;9.88;;;2.00;99.90;;;;;;5031958;28;20045;-61
2021/12/16 03:06:32;;;;;;;19.75;10.57;;;2.00;99.90;;;;;;5013302;28;20045;-61
2021/12/16 03:09:02;;;;;;;20.25;9.80;;;2.00;99.90;;;;;;5031867;28;20041;-61
2021/12/16 03:23:59;;;;;;;19.17;8.40;;;2.00;99.90;;;;;;5017485;28;20064;-62
2021/12/16 03:35:53;;;;;;;22.15;10.23;;;2.00;99.90;;;;;;5033603;28;20044;-62
2021/12/16 03:37:50;;;;;;;18.65;9.32;;;2.00;99.90;;;;;;5026465;28;20041;-62
2021/12/16 03:40:17;;;;;;;18.52;9.75;;;2.00;99.90;;;;;;5045637;28;20064;-62
2021/12/16 03:42:52;;;;;;;19.08;8.88;;;2.00;99.90;;;;;;5017938;28;20045;-62
2021/12/16 03:48:29;;;;;;;18.70;9.05;;;2.00;99.90;;;;;;5031731;28;20132;-62
2021/12/16 03:50:57;;;;;;;22.30;9.73;;;2.00;99.90;;;;;;5029628;28;20045;-62
2021/12/16 03:53:25;;;;;;;22.02;9.85;;;2.00;99.90;;;;;;5031369;28;20033;-62
2021/12/16 03:55:53;;;;;;;21.13;9.30;;;2.00;99.90;;;;;;5029221;28;20409;-62
2021/12/16 03:58:22;;;;;;;22.95;9.48;;;2.00;99.90;;;;;;5013669;28;20060;-62
2021/12/16 04:00:57;;;;;;;18.13;8.68;;;2.00;99.90;;;;;;5013128;28;20037;-64
2021/12/16 04:03:25;;;;;;;22.67;10.60;;;2.00;99.90;;;;;;5030098;28;20057;-62
2021/12/16 04:05:52;;;;;;;24.67;10.88;;;2.00;99.90;;;;;;5029024;28;20041;-64
2021/12/16 04:08:20;;;;;;;26.13;11.40;;;1.90;99.90;;;;;;5013537;28;20073;-62
2021/12/16 04:11:06;;;;;;;23.23;10.60;;;1.90;99.90;;;;;;5014365;28;20057;-62
2021/12/16 04:13:53;;;;;;;22.55;10.52;;;1.90;99.90;;;;;;5013016;28;20076;-62
2021/12/16 04:16:48;;;;;;;24.95;9.88;;;2.00;99.90;;;;;;5029344;28;20052;-62
2021/12/16 04:19:27;;;;;;;18.90;9.10;;;2.00;99.90;;;;;;5029888;28;20046;-62
2021/12/16 04:21:57;;;;;;;22.15;8.90;;;2.00;99.90;;;;;;5029698;28;20045;-62
2021/12/16 04:24:26;;;;;;;19.38;9.40;;;2.10;99.90;;;;;;5029358;28;20077;-62
2021/12/16 04:26:54;;;;;;;22.30;9.25;;;2.10;99.90;;;;;;5029392;28;20072;-62
2021/12/16 04:29:26;;;;;;;19.70;8.50;;;2.10;99.90;;;;;;5013072;28;20115;-62
2021/12/16 04:31:55;;;;;;;20.38;8.73;;;2.00;99.90;;;;;;5029793;28;20049;-62
2021/12/16 04:34:24;;;;;;;20.63;9.13;;;2.00;99.90;;;;;;5012770;28;20052;-62
2021/12/16 04:36:52;;;;;;;21.60;9.00;;;2.00;99.90;;;;;;5030614;28;20045;-62
2021/12/16 04:39:23;;;;;;;21.48;9.70;;;2.00;99.90;;;;;;5012923;28;20092;-62
2021/12/16 04:41:53;;;;;;;21.02;9.30;;;2.00;99.90;;;;;;5032692;28;20042;-62
2021/12/16 04:44:22;;;;;;;19.95;8.32;;;2.00;99.90;;;;;;5016722;28;20111;-62
2021/12/16 04:46:50;;;;;;;21.48;9.55;;;2.10;99.90;;;;;;5015923;28;20045;-62
2021/12/16 04:49:17;;;;;;;23.20;10.45;;;2.00;99.90;;;;;;5033258;28;20045;-62
2021/12/16 04:51:49;;;;;;;20.73;10.05;;;2.00;99.90;;;;;;5016504;28;20042;-62
2021/12/16 04:54:18;;;;;;;22.55;9.65;;;2.00;99.90;;;;;;5033076;28;20037;-62
2021/12/16 04:56:47;;;;;;;24.38;9.30;;;2.00;99.90;;;;;;5032140;28;20401;-62
2021/12/16 04:59:17;;;;;;;17.50;9.48;;;2.10;99.90;;;;;;5016520;28;20049;-62
2021/12/16 05:01:51;;;;;;;21.50;9.45;;;2.10;99.90;;;;;;5032775;28;20037;-62
2021/12/16 05:04:42;;;;;;;23.65;9.55;;;2.10;99.90;;;;;;5033125;28;20264;-62
2021/12/16 05:07:09;;;;;;;22.02;10.13;;;2.10;99.90;;;;;;5015711;28;20128;-63
2021/12/16 05:12:14;;;;;;;19.75;8.25;;;2.10;99.90;;;;;;5032857;28;20458;-62
2021/12/16 05:14:43;;;;;;;23.08;8.95;;;2.10;99.90;;;;;;5032190;28;20047;-62
2021/12/16 05:17:36;;;;;;;25.10;9.48;;;2.00;99.90;;;;;;5015763;28;20037;-62
2021/12/16 05:20:00;;;;;;;26.45;8.90;;;2.00;99.90;;;;;;5032091;28;20073;-62
2021/12/16 05:25:36;;;;;;;20.95;9.30;;;2.10;99.90;;;;;;5031743;28;20049;-64
2021/12/16 05:28:04;;;;;;;19.88;8.68;;;2.10;99.90;;;;;;5016205;28;20046;-63
2021/12/16 05:30:33;;;;;;;27.58;10.65;;;2.10;99.90;;;;;;5031495;28;20064;-64
2021/12/16 05:33:00;;;;;;;20.17;10.13;;;2.10;99.90;;;;;;5033825;28;20048;-64
2021/12/16 05:35:28;;;;;;;27.35;10.80;;;2.10;99.90;;;;;;5031637;28;20041;-63
2021/12/16 05:37:55;;;;;;;27.13;9.52;;;2.10;99.90;;;;;;5015832;28;20414;-63
2021/12/16 05:40:27;;;;;;;26.02;9.52;;;2.10;99.90;;;;;;5031882;28;20067;-63
2021/12/16 05:43:32;;;;;;;23.75;9.63;;;2.10;99.90;;;;;;5029555;28;20259;-63
2021/12/16 05:46:00;;;;;;;24.05;10.15;;;2.10;99.90;;;;;;5031600;28;20041;-63
2021/12/16 05:48:31;;;;;;;23.83;9.68;;;2.10;99.90;;;;;;5032003;28;20391;-63
2021/12/16 05:51:03;;;;;;;22.85;8.82;;;2.10;99.90;;;;;;5031885;28;20041;-64
2021/12/16 05:53:31;;;;;;;22.40;9.25;;;2.10;99.90;;;;;;5031728;28;20038;-63
2021/12/16 05:55:58;;;;;;;23.98;9.68;;;2.00;99.90;;;;;;5031612;28;20041;-63
2021/12/16 05:58:30;;;;;;;22.75;10.10;;;2.00;99.90;;;;;;5031248;28;20045;-63
2021/12/16 06:01:10;;;;;;;22.95;10.02;;;2.00;99.90;;;;;;5031706;28;20080;-63
2021/12/16 06:03:39;;;;;;;25.65;10.23;;;2.00;99.90;;;;;;5031388;28;20041;-63
2021/12/16 06:06:07;;;;;;;22.95;10.57;;;2.00;99.90;;;;;;5014514;28;20136;-63
2021/12/16 06:08:34;;;;;;;;;;;1.90;99.90;;;;;;5015139;28;20044;-63
2021/12/16 06:11:15;;;;;;;26.20;10.52;;;2.00;99.90;;;;;;5032469;28;19925;-63
2021/12/16 06:22:40;;;;;;;24.80;10.35;;;2.10;99.90;;;;;;5032893;28;20116;-63
2021/12/16 06:28:03;;;;;;;25.67;10.18;;;2.10;99.90;;;;;;5032927;28;20092;-63
2021/12/16 06:30:33;;;;;;;28.88;10.65;;;2.10;99.90;;;;;;5032323;28;20390;-63
2021/12/16 06:33:03;;;;;;;20.80;10.55;;;2.10;99.90;;;;;;5032303;28;20056;-63
2021/12/16 06:35:30;;;;;;;25.88;11.75;;;2.00;99.90;;;;;;5032005;28;20091;-63
2021/12/16 06:37:57;;;;;;;36.22;13.63;;;2.10;99.90;;;;;;5030753;28;20045;-63
2021/12/16 06:40:29;;;;;;;38.00;15.60;;;2.10;99.90;;;;;;5014760;28;20525;-63
2021/12/16 06:43:06;;;;;;;35.15;14.38;;;2.10;99.90;;;;;;5014270;28;20038;-63
2021/12/16 06:45:34;;;;;;;28.05;14.40;;;2.10;99.90;;;;;;5013975;28;20160;-62
2021/12/16 06:48:06;;;;;;;33.95;15.05;;;2.10;99.90;;;;;;5031770;28;20124;-62
2021/12/16 06:50:59;;;;;;;33.85;14.77;;;2.10;99.90;;;;;;5032239;28;20049;-63
2021/12/16 06:53:31;;;;;;;43.72;19.10;;;2.10;99.90;;;;;;5031714;28;20046;-63
2021/12/16 06:58:33;;;;;;;38.95;18.52;;;2.10;99.90;;;;;;5031800;28;20049;-63
2021/12/16 07:01:13;;;;;;;42.65;17.95;;;2.20;99.90;;;;;;5032120;28;20057;-63
2021/12/16 07:03:49;;;;;;;35.42;15.30;;;2.20;99.90;;;;;;5031694;28;20078;-63
2021/12/16 07:06:21;;;;;;;35.28;15.63;;;2.20;99.90;;;;;;5031037;28;20052;-63
2021/12/16 07:09:18;;;;;;;31.88;13.27;;;2.20;99.90;;;;;;5031416;28;20076;-61
2021/12/16 07:11:52;;;;;;;28.65;13.73;;;2.20;99.90;;;;;;5055401;28;20090;-63
2021/12/16 07:14:23;;;;;;;29.33;11.95;;;2.20;99.90;;;;;;5070722;28;20400;-63
2021/12/16 07:16:57;;;;;;;29.50;12.38;;;2.20;99.90;;;;;;5057559;28;20037;-63
2021/12/16 07:19:23;;;;;;;31.67;15.10;;;2.20;99.90;;;;;;5051214;28;20052;-63
2021/12/16 07:21:50;;;;;;;23.58;10.10;;;2.20;99.90;;;;;;5064845;28;20036;-63
2021/12/16 07:24:19;;;;;;;18.27;9.63;;;2.20;99.90;;;;;;5054315;28;20045;-63
2021/12/16 07:26:47;;;;;;;29.38;13.88;;;2.30;99.90;;;;;;5050652;28;20044;-63
2021/12/16 07:29:15;;;;;;;24.90;12.68;;;2.30;99.90;;;;;;5051377;28;20127;-63
2021/12/16 07:31:41;;;;;;;30.10;11.75;;;2.30;99.90;;;;;;5051336;28;20559;-63
2021/12/16 07:34:10;;;;;;;26.48;12.05;;;2.30;99.90;;;;;;5064576;28;20047;-63
2021/12/16 07:36:40;;;;;;;24.98;11.80;;;2.30;99.90;;;;;;5070938;28;20097;-63
2021/12/16 07:39:11;;;;;;;24.10;10.90;;;2.30;99.90;;;;;;5070991;28;20385;-63
2021/12/16 07:41:40;;;;;;;27.77;12.20;;;2.40;99.90;;;;;;5071369;28;20051;-63
2021/12/16 07:44:10;;;;;;;27.20;12.40;;;2.40;99.90;;;;;;5039905;28;20052;-63
2021/12/16 07:46:37;;;;;;;23.23;10.55;;;2.40;99.90;;;;;;5050834;28;20049;-63
2021/12/16 07:49:06;;;;;;;25.88;11.35;;;2.40;99.90;;;;;;5050891;28;20056;-63
2021/12/16 07:51:34;;;;;;;26.13;11.40;;;2.50;99.90;;;;;;5051310;28;20072;-63
2021/12/16 07:54:01;;;;;;;23.27;10.43;;;2.50;99.90;;;;;;5063696;28;20059;-63
2021/12/16 07:56:28;;;;;;;20.25;9.63;;;2.50;99.90;;;;;;5070854;28;20076;-63
2021/12/16 07:58:55;;;;;;;23.15;10.45;;;2.60;99.90;;;;;;5071176;28;20052;-63
2021/12/16 08:01:23;;;;;;;20.35;9.82;;;2.60;99.90;;;;;;5070697;28;20123;-63
2021/12/16 08:03:50;;;;;;;24.23;12.63;;;2.60;99.90;;;;;;5062772;28;20041;-63
2021/12/16 08:06:23;;;;;;;23.63;10.98;;;2.70;99.90;;;;;;5050076;28;20060;-63
2021/12/16 08:08:55;;;;;;;21.77;10.80;;;2.70;99.90;;;;;;5051148;28;20033;-63
2021/12/16 08:11:24;;;;;;;24.52;11.75;;;2.80;99.90;;;;;;5050672;28;20119;-63
2021/12/16 08:13:51;;;;;;;28.05;12.20;;;2.80;99.90;;;;;;5033153;28;20452;-63
2021/12/16 08:16:22;;;;;;;23.13;11.70;;;2.80;99.90;;;;;;5054979;28;20045;-63
2021/12/16 08:18:50;;;;;;;32.00;11.90;;;2.80;99.90;;;;;;5071230;28;20055;-63
2021/12/16 08:21:17;;;;;;;27.20;12.00;;;2.80;99.90;;;;;;5074863;28;20052;-63
2021/12/16 08:23:44;;;;;;;;;;;2.80;99.90;;;;;;5074472;28;20041;-63
2021/12/16 08:26:15;;;;;;;29.67;12.27;;;2.80;99.90;;;;;;5074348;28;19928;-63
2021/12/16 08:28:44;;;;;;;22.90;11.23;;;2.70;99.90;;;;;;5074289;28;20446;-63
2021/12/16 08:31:12;;;;;;;20.67;11.43;;;2.80;99.90;;;;;;5074839;28;20044;-63
2021/12/16 08:33:39;;;;;;;;;;;2.80;99.90;;;;;;5074891;28;20090;-63
2021/12/16 08:36:09;;;;;;;28.83;11.43;;;2.80;99.90;;;;;;5074051;28;19920;-63
2021/12/16 08:38:38;;;;;;;29.10;12.63;;;2.80;99.90;;;;;;5074313;28;20048;-63
2021/12/16 08:41:11;;;;;;;22.08;11.13;;;2.80;99.90;;;;;;5074579;28;20044;-63
2021/12/16 08:43:40;;;;;;;25.23;12.63;;;2.80;99.90;;;;;;5074596;28;20044;-63
2021/12/16 08:46:12;;;;;;;20.40;9.80;;;2.90;99.90;;;;;;5073829;28;20062;-63
2021/12/16 08:48:40;;;;;;;24.90;11.32;;;2.90;99.90;;;;;;5074421;28;20045;-61
2021/12/16 08:51:08;;;;;;;29.70;11.40;;;2.90;99.90;;;;;;5073958;28;20051;-63
2021/12/16 08:53:35;;;;;;;22.35;11.02;;;3.00;99.90;;;;;;5074379;28;20137;-63
2021/12/16 08:56:05;;;;;;;24.60;11.02;;;2.90;99.90;;;;;;5055366;28;20044;-63
2021/12/16 08:58:32;;;;;;;22.52;10.55;;;3.00;99.90;;;;;;5074401;28;20600;-64
2021/12/16 09:01:05;;;;;;;26.63;10.75;;;2.90;99.90;;;;;;5073614;28;20036;-63
2021/12/16 09:03:32;;;;;;;23.70;11.50;;;3.00;99.90;;;;;;5074154;28;20041;-63
2021/12/16 09:06:01;;;;;;;29.95;11.85;;;3.00;99.90;;;;;;5073568;28;20500;-63
2021/12/16 09:08:28;;;;;;;25.98;11.18;;;3.00;99.90;;;;;;5074299;28;20041;-63
2021/12/16 09:10:56;;;;;;;33.22;13.45;;;3.00;99.90;;;;;;5074004;28;20480;-63
2021/12/16 09:13:25;;;;;;;26.10;12.60;;;3.00;99.90;;;;;;5073663;28;20052;-63
2021/12/16 09:15:56;;;;;;;32.08;13.45;;;3.00;99.90;;;;;;5097114;22;20444;-60
2021/12/16 09:19:02;;;;;;;33.58;14.00;;;3.00;99.90;;;;;;5113699;28;20995;-60
2021/12/16 09:21:32;;;;;;;29.73;14.25;;;3.00;99.90;;;;;;5112231;28;20059;-60
2021/12/16 09:24:00;;;;;;;35.55;13.70;;;3.00;99.90;;;;;;5113888;28;20039;-60
2021/12/16 09:26:28;;;;;;;30.40;13.52;;;3.00;99.90;;;;;;5112343;28;20059;-60
2021/12/16 09:28:55;;;;;;;;;;;3.00;99.90;;;;;;5114321;28;20048;-60
2021/12/16 09:31:26;;;;;;;31.02;12.80;;;3.00;99.90;;;;;;5114304;28;19920;-60
2021/12/16 09:33:55;;;;;;;29.73;13.13;;;3.10;99.90;;;;;;5114120;28;20457;-61
2021/12/16 09:36:25;;;;;;;27.98;13.07;;;3.10;99.90;;;;;;5113250;28;20040;-60
2021/12/16 09:38:53;;;;;;;28.30;13.10;;;3.10;99.90;;;;;;5114142;28;20081;-60
2021/12/16 09:41:19;;;;;;;;;;;3.10;99.90;;;;;;5114291;28;20040;-60
2021/12/16 09:43:50;;;;;;;27.35;12.60;;;3.10;99.90;;;;;;5114093;28;20303;-60
2021/12/16 09:46:21;;;;;;;25.95;12.20;;;3.10;99.90;;;;;;5112957;28;20079;-60
2021/12/16 09:48:48;;;;;;;35.72;13.95;;;3.00;99.90;;;;;;5114163;28;20100;-60
2021/12/16 09:51:21;;;;;;;30.42;11.95;;;3.00;99.90;;;;;;5113660;28;20047;-60
2021/12/16 09:53:54;;;;;;;31.67;13.15;;;2.90;99.90;;;;;;5113798;28;20081;-60
2021/12/16 09:56:23;;;;;;;25.08;12.02;;;3.00;99.90;;;;;;5113052;28;20048;-60
2021/12/16 09:58:51;;;;;;;28.65;12.23;;;3.10;99.90;;;;;;5113586;28;20043;-61
2021/12/16 10:01:20;;;;;;;28.40;12.90;;;3.10;99.90;;;;;;5113576;28;20070;-60
2021/12/16 10:03:49;;;;;;;31.92;13.88;;;3.10;99.90;;;;;;5113126;28;20039;-60
2021/12/16 10:06:17;;;;;;;30.10;13.52;;;3.20;99.90;;;;;;5113084;28;20035;-60
2021/12/16 10:08:45;;;;;;;28.85;12.65;;;3.30;99.90;;;;;;5113190;28;20108;-60
2021/12/16 10:11:13;;;;;;;28.83;12.57;;;3.30;99.90;;;;;;5113592;28;20043;-60
2021/12/16 10:19:13;;;;;;;25.27;12.20;;;3.30;99.90;;;;;;5113130;28;20040;-60
2021/12/16 10:21:42;;;;;;;29.60;12.98;;;3.40;99.90;;;;;;5113353;28;20048;-60
2021/12/16 10:24:21;;;;;;;26.10;12.02;;;3.40;99.90;;;;;;5112725;28;20160;-61
2021/12/16 10:27:05;;;;;;;28.08;12.90;;;3.30;99.90;;;;;;5112757;28;20043;-60
2021/12/16 10:29:39;;;;;;;30.02;12.68;;;3.40;99.90;;;;;;5113229;28;20060;-60
2021/12/16 10:32:31;;;;;;;31.52;13.35;;;3.40;99.90;;;;;;5112931;28;20043;-60
2021/12/16 10:35:00;;;;;;;29.13;13.27;;;3.50;99.90;;;;;;5112863;28;20044;-60
2021/12/16 10:37:33;;;;;;;30.05;13.27;;;3.50;99.90;;;;;;5112112;28;20093;-60
2021/12/16 10:40:27;;;;;;;37.17;15.35;;;3.40;99.90;;;;;;5112084;28;20059;-60
2021/12/16 10:42:56;;;;;;;41.05;16.42;;;3.50;99.90;;;;;;5100305;28;20048;-60
2021/12/16 10:45:41;;;;;;;27.70;13.88;;;3.60;99.90;;;;;;5100824;28;20083;-60
2021/12/16 10:48:19;;;;;;;32.45;14.43;;;3.70;99.90;;;;;;5103133;28;20089;-60
2021/12/16 10:50:59;;;;;;;32.20;14.05;;;3.90;99.90;;;;;;5103858;28;20070;-60
2021/12/16 10:53:51;;;;;;;29.17;13.07;;;3.90;99.90;;;;;;5112296;28;20522;-60
2021/12/16 10:56:43;;;;;;;31.38;13.77;;;4.00;99.90;;;;;;5112227;28;20080;-60
2021/12/16 10:59:15;;;;;;;28.55;11.20;;;4.10;99.90;;;;;;5112174;28;20039;-60
2021/12/16 11:01:42;;;;;;;23.95;11.57;;;4.10;99.90;;;;;;5112465;28;20047;-60
2021/12/16 11:04:17;;;;;;;25.65;12.60;;;4.10;99.90;;;;;;5112012;28;20040;-60
2021/12/16 11:06:52;;;;;;;25.92;12.20;;;4.00;99.90;;;;;;5111462;28;20051;-60
2021/12/16 11:09:27;;;;;;;24.67;11.15;;;4.10;99.90;;;;;;5092452;28;20050;-60
2021/12/16 11:12:12;;;;;;;21.60;10.65;;;4.20;99.90;;;;;;5092177;28;20604;-60
2021/12/16 11:14:43;;;;;;;18.83;9.85;;;4.30;99.90;;;;;;5091442;28;20067;-60
2021/12/16 11:17:12;;;;;;;20.77;9.70;;;4.40;99.90;;;;;;5091539;28;20515;-60
2021/12/16 11:19:44;;;;;;;21.60;10.85;;;4.30;99.90;;;;;;5091664;28;20040;-60
2021/12/16 11:22:13;;;;;;;18.67;9.40;;;4.40;99.90;;;;;;5091997;28;20611;-60
2021/12/16 11:24:40;;;;;;;19.77;9.07;;;4.60;99.90;;;;;;5092283;28;20063;-60
2021/12/16 11:27:25;;;;;;;19.15;8.93;;;4.60;99.90;;;;;;5091034;28;20077;-60
2021/12/16 11:29:52;;;;;;;18.42;9.93;;;4.70;99.90;;;;;;5091794;28;20051;-61
2021/12/16 11:32:38;;;;;;;;;;;4.70;99.90;;;;;;5091588;28;20039;-60
2021/12/16 11:35:23;;;;;;;23.20;10.00;;;4.80;99.90;;;;;;5091469;28;19920;-60
2021/12/16 11:37:50;;;;;;;19.77;10.18;;;4.80;99.90;;;;;;5101507;28;20044;-60
2021/12/16 11:40:19;;;;;;;21.42;9.65;;;4.80;99.90;;;;;;5099488;28;20055;-60
2021/12/16 11:43:04;;;;;;;22.70;10.07;;;4.80;99.90;;;;;;5089851;28;20488;-58
2021/12/16 11:45:33;;;;;;;24.05;11.15;;;4.70;99.90;;;;;;5090604;28;20048;-59
2021/12/16 11:48:01;;;;;;;20.25;9.57;;;4.60;99.90;;;;;;5091211;28;20044;-56
2021/12/16 11:50:40;;;;;;;20.42;9.60;;;4.50;99.90;;;;;;5093744;28;20055;-58
2021/12/16 11:53:11;;;;;;;18.27;9.63;;;4.50;99.90;;;;;;5095769;28;20430;-58
2021/12/16 11:55:38;;;;;;;20.35;9.82;;;4.40;99.90;;;;;;5094208;28;20044;-58
2021/12/16 11:58:07;;;;;;;18.55;9.45;;;4.50;99.90;;;;;;5095503;28;20073;-58
2021/12/16 12:00:38;;;;;;;18.30;9.73;;;4.50;99.90;;;;;;5094864;28;20040;-59
2021/12/16 12:03:14;;;;;;;24.77;9.75;;;4.60;99.90;;;;;;5095535;28;20044;-59
2021/12/16 12:05:42;;;;;;;19.63;9.82;;;4.60;99.90;;;;;;5094215;28;20051;-59
2021/12/16 12:08:12;;;;;;;21.98;9.50;;;4.70;99.90;;;;;;5095418;28;20067;-58
2021/12/16 12:11:01;;;;;;;18.02;9.25;;;4.70;99.90;;;;;;5095085;28;20548;-58
2021/12/16 12:13:37;;;;;;;20.17;9.30;;;4.70;99.90;;;;;;5115418;28;20133;-58
2021/12/16 12:16:09;;;;;;;18.70;8.90;;;4.60;99.90;;;;;;5114539;28;20050;-58
2021/12/16 12:18:47;;;;;;;19.20;9.32;;;4.60;99.90;;;;;;5115199;28;20119;-57
2021/12/16 12:21:38;;;;;;;23.35;10.88;;;4.50;99.90;;;;;;5115225;28;20039;-58
2021/12/16 12:24:19;;;;;;;23.30;10.90;;;4.60;99.90;;;;;;5115047;28;20040;-58
2021/12/16 12:26:46;;;;;;;19.95;9.90;;;4.70;99.90;;;;;;5114566;28;20096;-58
2021/12/16 12:29:28;;;;;;;13.75;8.05;;;4.70;99.90;;;;;;5114829;28;20097;-58
2021/12/16 12:32:07;;;;;;;21.08;10.25;;;4.70;99.90;;;;;;5110283;28;20048;-59
2021/12/16 12:34:37;;;;;;;17.70;9.23;;;4.80;99.90;;;;;;5105844;28;20044;-59
2021/12/16 12:37:09;;;;;;;16.73;7.88;;;4.80;99.90;;;;;;5102765;28;20032;-59
2021/12/16 12:39:42;;;;;;;17.75;9.38;;;4.80;99.90;;;;;;5103162;28;20040;-58
2021/12/16 12:42:11;;;;;;;18.58;8.77;;;4.70;99.90;;;;;;5103577;28;20042;-59
2021/12/16 12:44:38;;;;;;;24.77;10.75;;;4.50;99.90;;;;;;5105381;28;20035;-59
2021/12/16 12:47:10;;;;;;;24.20;9.02;;;4.50;99.90;;;;;;5075258;28;20442;-59
2021/12/16 12:49:37;;;;;;;18.08;8.90;;;4.70;99.90;;;;;;5094626;28;20052;-59
2021/12/16 12:52:12;;;;;;;17.50;9.05;;;4.70;99.90;;;;;;5094099;28;20389;-59
2021/12/16 12:54:42;;;;;;;18.58;9.25;;;4.70;99.90;;;;;;5106759;28;20100;-59
2021/12/16 12:57:31;;;;;;;20.73;9.55;;;4.70;99.90;;;;;;5110789;28;20043;-59
2021/12/16 12:59:58;;;;;;;20.02;10.73;;;4.60;99.90;;;;;;5103894;28;20048;-59
2021/12/16 13:02:32;;;;;;;21.85;10.77;;;4.60;99.90;;;;;;5098996;28;20051;-59
2021/12/16 13:04:59;;;;;;;22.25;9.82;;;4.50;99.90;;;;;;5093737;28;20484;-59
2021/12/16 13:07:43;;;;;;;20.35;10.05;;;4.50;99.90;;;;;;5093455;28;20044;-59
2021/12/16 13:10:11;;;;;;;17.17;8.77;;;4.50;99.90;;;;;;5094095;28;20176;-59
2021/12/16 13:15:26;;;;;;;19.60;9.80;;;4.50;99.90;;;;;;5093393;28;20097;-59
2021/12/16 13:23:44;;;;;;;19.48;10.07;;;4.50;99.90;;;;;;5092782;28;20044;-59
2021/12/16 13:29:11;;;;;;;23.38;10.80;;;4.50;99.90;;;;;;5092982;28;20113;-59
2021/12/16 13:32:06;;;;;;;19.77;9.38;;;4.40;99.90;;;;;;5093659;28;20044;-59
2021/12/16 13:34:50;;;;;;;16.60;9.48;;;4.40;99.90;;;;;;5092531;28;20051;-59
2021/12/16 13:37:29;;;;;;;20.65;10.05;;;4.50;99.90;;;;;;5093166;28;20040;-59
2021/12/16 13:40:07;;;;;;;25.25;10.00;;;4.40;99.90;;;;;;5092683;28;20040;-59
2021/12/16 13:42:54;;;;;;;20.35;10.02;;;4.50;99.90;;;;;;5093570;28;20036;-59
2021/12/16 13:45:31;;;;;;;22.23;9.38;;;4.50;99.90;;;;;;5091796;28;20047;-59
2021/12/16 14:05:40;;;;;;;21.20;10.23;;;4.30;99.90;;;;;;5093145;28;20043;-59
2021/12/16 14:08:09;;;;;;;29.27;13.65;;;4.30;99.90;;;;;;5090520;28;20087;-59
2021/12/16 14:10:48;;;;;;;38.10;16.75;;;4.30;99.90;;;;;;5092749;28;20051;-58
2021/12/16 14:14:10;;;;;;;37.58;17.80;;;4.30;99.90;;;;;;5091532;28;20075;-59
2021/12/16 14:17:06;;;;;;;26.98;12.35;;;4.30;99.90;;;;;;5091670;28;20052;-59
2021/12/16 14:25:39;;;;;;;31.45;14.93;;;4.30;99.90;;;;;;5091827;28;20484;-58
2021/12/16 14:34:49;;;;;;;27.40;12.60;;;4.20;99.90;;;;;;5083794;28;20350;-59
2021/12/16 14:42:15;;;;;;;26.92;13.80;;;4.20;99.90;;;;;;5092020;28;20040;-59
2021/12/16 14:50:23;;;;;;;27.42;13.65;;;4.20;99.90;;;;;;5092383;28;20428;-59
2021/12/16 14:52:50;;;;;;;27.50;13.20;;;4.20;99.90;;;;;;5102651;28;20044;-59
2021/12/16 14:55:18;;;;;;;24.65;11.90;;;4.20;99.90;;;;;;5082589;28;20123;-60
2021/12/16 14:57:49;;;;;;;22.05;11.70;;;4.20;99.90;;;;;;5101108;28;20077;-59
2021/12/16 15:00:28;;;;;;;19.20;10.25;;;4.20;99.90;;;;;;5101164;28;20127;-59
2021/12/16 15:03:03;;;;;;;21.10;11.07;;;4.10;99.90;;;;;;5100522;28;20507;-59
2021/12/16 15:05:39;;;;;;;31.25;13.23;;;4.10;99.90;;;;;;5100966;28;20067;-59
2021/12/16 15:08:26;;;;;;;26.75;13.10;;;4.10;99.90;;;;;;5097277;28;20116;-59
2021/12/16 15:10:56;;;;;;;25.60;12.10;;;4.10;99.90;;;;;;5107490;28;20044;-59
2021/12/16 15:13:39;;;;;;;22.05;11.45;;;4.10;99.90;;;;;;5104536;28;20028;-59
2021/12/16 15:16:45;;;;;;;24.38;12.73;;;4.10;99.90;;;;;;5111281;22;21099;-63
2021/12/16 15:39:12;;;;;;;42.03;16.95;;;3.90;99.90;;;;;;5091815;28;20404;-63
2021/12/16 15:44:22;;;;;;;31.90;15.25;;;3.80;99.90;;;;;;5091567;28;20044;-63
2021/12/16 15:46:53;;;;;;;72.13;33.28;;;3.80;99.90;;;;;;5090411;28;20515;-63
2021/12/16 15:49:22;;;;;;;24.10;11.35;;;3.80;99.90;;;;;;5091444;28;20109;-63
2021/12/16 15:51:53;;;;;;;27.77;12.23;;;3.80;99.90;;;;;;5091516;28;20136;-63
2021/12/16 15:54:22;;;;;;;17.60;9.95;;;3.80;99.90;;;;;;5091129;28;20048;-63
2021/12/16 15:56:49;;;;;;;;;;;3.80;99.90;;;;;;5091280;28;20043;-63
2021/12/16 15:59:21;;;;;;;64.07;27.98;;;3.80;99.90;;;;;;5090874;28;20003;-63
2021/12/16 16:01:51;;;;;;;28.50;13.48;;;3.80;99.90;;;;;;5091074;28;20048;-63
2021/12/16 16:04:28;;;;;;;35.08;16.10;;;3.90;99.90;;;;;;5091485;28;20040;-63
2021/12/16 16:06:59;;;;;;;38.60;16.90;;;3.90;99.90;;;;;;5091220;28;20096;-63
2021/12/16 16:09:34;;;;;;;34.28;16.55;;;3.90;99.90;;;;;;5089322;28;20094;-63
2021/12/16 16:12:02;;;;;;;32.67;14.93;;;3.90;99.90;;;;;;5090549;28;20109;-63
2021/12/16 16:14:32;;;;;;;35.50;18.13;;;3.80;99.90;;;;;;5090765;28;20048;-64
2021/12/16 16:17:02;;;;;;;35.10;17.40;;;3.80;99.90;;;;;;5090290;28;20492;-63
2021/12/16 16:19:34;;;;;;;34.30;17.45;;;3.70;99.90;;;;;;5090765;28;20089;-63
2021/12/16 16:22:03;;;;;;;35.13;17.27;;;3.70;99.90;;;;;;5090874;28;20114;-63
2021/12/16 16:24:35;;;;;;;33.30;15.45;;;3.70;99.90;;;;;;5090586;28;20119;-63
2021/12/16 16:27:12;;;;;;;38.83;16.27;;;3.60;99.90;;;;;;5090284;28;20040;-63
2021/12/16 16:29:46;;;;;;;35.20;15.45;;;3.70;99.90;;;;;;5090200;28;20051;-63
2021/12/16 16:32:14;;;;;;;29.13;12.90;;;3.60;99.90;;;;;;5089991;28;20047;-63
2021/12/16 16:34:48;;;;;;;28.95;14.48;;;3.70;99.90;;;;;;5080686;28;20583;-63
2021/12/16 16:37:27;;;;;;;30.55;15.75;;;3.70;99.90;;;;;;5071585;28;20050;-63
2021/12/16 16:40:07;;;;;;;32.35;13.65;;;3.70;99.90;;;;;;5074537;28;20504;-64
2021/12/16 16:42:40;;;;;;;24.08;11.93;;;3.70;99.90;;;;;;5056126;28;20057;-63
2021/12/16 16:45:19;;;;;;;22.75;11.27;;;3.70;99.90;;;;;;5073839;28;20048;-63
2021/12/16 16:47:53;;;;;;;24.15;11.90;;;3.70;99.90;;;;;;5074116;28;20138;-63
2021/12/16 16:50:23;;;;;;;23.60;10.85;;;3.60;99.90;;;;;;5073762;28;20049;-63
2021/12/16 16:52:52;;;;;;;22.70;11.32;;;3.50;99.90;;;;;;5074877;28;20036;-63
2021/12/16 16:55:31;;;;;;;25.63;11.93;;;3.50;99.90;;;;;;5073306;28;20055;-63
2021/12/16 16:58:06;;;;;;;22.90;10.93;;;3.40;99.90;;;;;;5076124;28;20040;-64
2021/12/16 17:00:40;;;;;;;22.63;11.60;;;3.50;99.90;;;;;;5093346;28;20051;-63
2021/12/16 17:03:13;;;;;;;21.95;11.52;;;3.50;99.90;;;;;;5094505;28;20052;-63
2021/12/16 17:05:59;;;;;;;25.83;11.95;;;3.50;99.90;;;;;;5093230;28;20044;-63